Flight Track Log - Related Links

Times and Time Zones

All times are in EDT time to prevent confusion due to time zone crossing. See the CPZ5805 flight status page for this flight to view local times or setup timezone preferences in your user account.

Time Position Orientation Groundspeed Altitude Reporting Facility
EDT Latitude Longitude Course Direction KTS MPH feet Rate Location/Type
Sun 11:22:05 AM 44.9000 -93.2500 117° Southeast 163 188 2,100  Level Minneapolis TRACON
Sun 11:22:45 AM 44.9350 -93.2450 North 172 198 2,900 1,647 Climbing Minneapolis Center
Sun 11:23:47 AM 44.9928 -93.2203 17° North 240 276 4,900 2,516 Climbing Minneapolis Center
Sun 11:24:00 AM 44.7318 -92.6522 113° Southeast  Level Estimated
Sun 11:24:49 AM 44.9692 -93.1264 110° East 262 302 8,100  Level Minneapolis Center
Sun 11:25:00 AM 44.6712 -92.5269 124° Southeast  Level FlightAware Approximate
Sun 11:25:50 AM 44.9281 -93.0311 121° Southeast 280 322 10,800  Level Minneapolis Center
Sun 11:26:00 AM 44.6333 -92.3850 90° East  Level Estimated
Sun 11:26:52 AM 44.8731 -92.8953 120° Southeast 335 386 13,200  Level Minneapolis Center
Sun 11:27:00 AM 44.5952 -92.2434 117° Southeast  Level Estimated
Sun 11:27:54 AM 44.8250 -92.7758 120° Southeast 348 400 15,500  Level Minneapolis Center
Sun 11:28:55 AM 44.7731 -92.6475 120° Southeast 374 430 17,100 1,659 Climbing Minneapolis Center
Sun 11:29:57 AM 44.7194 -92.5150 120° Southeast 387 445 18,900 1,854 Climbing Minneapolis Center
Sun 11:30:58 AM 44.6639 -92.3797 120° Southeast 394 453 20,900 1,756 Climbing Minneapolis Center
Sun 11:32:00 AM 44.6081 -92.2411 119° Southeast 402 463 22,500 1,452 Climbing Minneapolis Center
Sun 11:33:02 AM 44.5567 -92.0939 116° Southeast 417 480 23,900 1,355 Climbing Minneapolis Center
Sun 11:34:04 AM 44.5039 -91.9431 116° Southeast 430 495 25,300 1,415 Climbing Minneapolis Center
Sun 11:35:05 AM 44.4394 -91.7614 116° Southeast 436 502 26,800 1,220 Climbing Minneapolis Center
Sun 11:36:07 AM 44.3842 -91.6094 117° Southeast 440 506 27,800 871 Climbing Minneapolis Center
Sun 11:37:09 AM 44.3283 -91.4536 117° Southeast 446 513 28,600 878 Climbing Minneapolis Center
Sun 11:38:10 AM 44.2725 -91.2989 117° Southeast 449 517 29,600 878 Climbing Minneapolis Center
Sun 11:39:12 AM 44.2183 -91.1486 117° Southeast 450 518 30,400 871 Climbing Minneapolis Center
Sun 11:40:14 AM 44.1606 -90.9936 117° Southeast 453 521 31,400 1,024 Climbing Minneapolis Center
Sun 11:41:15 AM 44.0944 -90.8117 117° Southeast 445 512 32,500 927 Climbing Minneapolis Center
Sun 11:42:17 AM 44.0397 -90.6611 117° Southeast 440 506 33,300 774 Climbing Minneapolis Center
Sun 11:43:19 AM 43.9811 -90.5044 117° Southeast 438 504 34,100 829 Climbing Minneapolis Center
Sun 11:44:20 AM 43.9267 -90.3586 117° Southeast 431 496 35,000 439 Climbing Minneapolis Center
Sun 11:45:22 AM 43.8722 -90.2144 118° Southeast 421 484 35,000  Level Minneapolis Center
Sun 11:46:24 AM 43.8172 -90.0711 118° Southeast 422 486 35,000  Level Minneapolis Center
Sun 11:47:26 AM 43.7717 -89.9203 113° Southeast 424 488 35,000  Level Minneapolis Center
Sun 11:48:27 AM 43.7314 -89.7364 107° East 428 493 35,000  Level Minneapolis Center
Sun 11:49:29 AM 43.6944 -89.5797 108° East 428 493 35,000  Level Minneapolis Center
Sun 11:50:31 AM 43.6581 -89.4244 108° East 426 490 35,000  Level Minneapolis Center
Sun 11:51:32 AM 43.6208 -89.2672 108° East 428 493 35,000  Level Minneapolis Center
Sun 11:52:05 AM 43.6008 -89.1906 110° East 430 495 35,000  Level Chicago Center
Sun 11:53:07 AM 43.5583 -89.0089 108° East 427 491 35,000  Level Chicago Center
Sun 11:54:09 AM 43.5203 -88.8542 109° East 427 491 35,000  Level Chicago Center
Sun 11:55:11 AM 43.4819 -88.7000 109° East 426 490 35,000  Level Chicago Center
Sun 11:56:12 AM 43.4425 -88.5406 109° East 430 495 35,000  Level Chicago Center
Sun 11:57:14 AM 43.4061 -88.3939 109° East 432 497 35,000  Level Chicago Center
Sun 11:58:16 AM 43.3622 -88.2186 109° East 428 493 35,000  Level Chicago Center
Sun 11:59:18 AM 43.3233 -88.0642 109° East 428 493 35,000  Level Chicago Center
Sun 12:00:20 PM 43.2847 -87.9114 109° East 425 489 35,000  Level Chicago Center
Sun 12:01:21 PM 43.2467 -87.7597 109° East 420 483 35,000  Level Chicago Center
Sun 12:02:23 PM 43.2081 -87.6072 109° East 422 486 35,000  Level Chicago Center
Sun 12:03:25 PM 43.1622 -87.4303 109° East 423 487 35,000  Level Chicago Center
Sun 12:04:27 PM 43.1281 -87.2978 109° East 421 484 35,000  Level Chicago Center
Sun 12:05:29 PM 43.0892 -87.1478 109° East 422 486 35,000  Level Chicago Center
Sun 12:06:31 PM 43.0428 -86.9681 109° East 421 484 35,000  Level Chicago Center
Sun 12:07:32 PM 43.0031 -86.8194 110° East 420 483 35,000  Level Chicago Center
Sun 12:08:34 PM 42.9633 -86.6706 110° East 420 483 35,000  Level Chicago Center
Sun 12:09:36 PM 42.9233 -86.5222 110° East 420 483 35,000  Level Chicago Center
Sun 12:10:38 PM 42.8828 -86.3756 111° Southeast 417 480 35,000  Level Chicago Center
Sun 12:11:40 PM 42.8433 -86.2286 110° East 418 481 35,000  Level Chicago Center
Sun 12:12:42 PM 42.7958 -86.0517 110° East 421 484 35,000  Level Chicago Center
Sun 12:13:44 PM 42.7547 -85.9044 111° Southeast 422 486 35,000  Level Chicago Center
Sun 12:14:45 PM 42.7144 -85.7575 110° East 420 483 35,000  Level Chicago Center
Sun 12:15:47 PM 42.6736 -85.6081 110° East 424 488 35,000  Level Chicago Center
Sun 12:16:49 PM 42.6244 -85.4303 111° Southeast 422 486 35,000  Level Chicago Center
Sun 12:17:51 PM 42.5814 -85.2800 111° Southeast 428 493 35,000  Level Chicago Center
Sun 12:18:53 PM 42.5397 -85.1306 111° Southeast 426 490 35,000  Level Chicago Center
Sun 12:19:55 PM 42.4972 -84.9817 111° Southeast 426 490 35,000 -484 Level Chicago Center
Sun 12:20:57 PM 42.4547 -84.8356 111° Southeast 419 482 34,000 -373 Descending Chicago Center
Sun 12:22:36 PM 42.3819 -84.5919 112° Southeast 421 484 34,000  Level Cleveland Center
Sun 12:23:36 PM 42.3389 -84.4458 112° Southeast 421 484 34,000  Level Cleveland Center
Sun 12:24:36 PM 42.2958 -84.3000 112° Southeast 421 484 34,000 -300 Level Cleveland Center
Sun 12:25:36 PM 42.2544 -84.1575 111° Southeast 421 484 33,400 -700 Descending Cleveland Center
Sun 12:26:36 PM 42.2111 -84.0092 111° Southeast 421 484 32,600 -750 Descending Cleveland Center
Sun 12:27:36 PM 42.1675 -83.8639 112° Southeast 421 484 31,900 -950 Descending Cleveland Center
Sun 12:28:36 PM 42.1217 -83.7131 112° Southeast 421 484 30,700 -1,200 Descending Cleveland Center
Sun 12:29:36 PM 42.0756 -83.5625 112° Southeast 421 484 29,500 -850 Descending Cleveland Center
Sun 12:30:36 PM 42.0228 -83.4175 116° Southeast 427 491 29,000 -250 Descending Cleveland Center
Sun 12:31:36 PM 41.9472 -83.2689 124° Southeast 432 497 29,000  Level Cleveland Center
Sun 12:32:36 PM 41.8814 -83.1461 126° Southeast 438 504 29,000  Level Cleveland Center
Sun 12:33:36 PM 41.8092 -83.0097 125° Southeast 444 511 29,000  Level Cleveland Center
Sun 12:34:36 PM 41.7389 -82.8761 125° Southeast 444 511 29,000  Level Cleveland Center
Sun 12:35:36 PM 41.6728 -82.7347 122° Southeast 444 511 29,000  Level Cleveland Center
Sun 12:36:36 PM 41.6114 -82.5689 116° Southeast 444 511 29,000  Level Cleveland Center
Sun 12:37:36 PM 41.5575 -82.4200 116° Southeast 449 517 29,000  Level Cleveland Center
Sun 12:38:36 PM 41.5014 -82.2689 116° Southeast 449 517 29,000  Level Cleveland Center
Sun 12:39:36 PM 41.4472 -82.1233 116° Southeast 449 517 29,000  Level Cleveland Center
Sun 12:40:36 PM 41.3947 -81.9892 118° Southeast 449 517 29,000 -550 Level Cleveland Center
Sun 12:41:36 PM 41.3383 -81.8219 114° Southeast 449 517 27,900 -1,700 Descending Cleveland Center
Sun 12:42:36 PM 41.2833 -81.6828 118° Southeast 443 510 25,600 -2,300 Descending Cleveland Center
Sun 12:43:36 PM 41.2283 -81.5439 118° Southeast 431 496 23,300 -2,200 Descending Cleveland Center
Sun 12:44:36 PM 41.1794 -81.4136 116° Southeast 408 470 21,200 -2,100 Descending Cleveland Center
Sun 12:45:36 PM 41.1303 -81.2917 118° Southeast 387 445 19,100 -2,050 Descending Cleveland Center
Sun 12:46:36 PM 41.0831 -81.1725 118° Southeast 370 426 17,100 -1,900 Descending Cleveland Center
Sun 12:47:36 PM 41.0375 -81.0567 118° Southeast 362 417 15,300 -1,700 Descending Cleveland Center
Sun 12:48:36 PM 40.9964 -80.9464 116° Southeast 351 404 13,700 -1,650 Descending Cleveland Center
Sun 12:49:36 PM 40.9550 -80.8414 118° Southeast 335 386 12,000 -1,750 Descending Cleveland Center
Sun 12:50:36 PM 40.9008 -80.7561 130° Southeast 324 373 10,200 -1,000 Descending Cleveland Center
Sun 12:51:36 PM 40.8175 -80.7039 155° Southeast 309 356 10,000 -400 Descending Cleveland Center
Sun 12:52:36 PM 40.7550 -80.6708 158° South 290 334 9,400 -1,150 Descending Cleveland Center
Sun 12:53:36 PM 40.6906 -80.6325 156° South 262 302 7,700 -1,700 Descending Cleveland Center
Sun 12:54:36 PM 40.6239 -80.5858 152° Southeast 252 290 6,000 -1,550 Descending Cleveland Center
Sun 12:55:36 PM 40.5633 -80.5422 151° Southeast 245 282 4,600 -1,000 Descending Cleveland Center
Sun 12:56:36 PM 40.5153 -80.5122 155° Southeast 231 266 4,000 -300 Descending Cleveland Center
Sun 12:57:36 PM 40.5089 -80.4492 98° East 181 208 4,000  Level Cleveland Center

Login

Don't have an account? Register now (free) for customized features, flight alerts, and more!